sensor_id;sensor_type;location;lat;lon;timestamp;pressure;altitude;pressure_sealevel;temperature;humidity
73981;BME280;62348;51.412;5.436;2023-03-14T00:01:22;98854.81;;;10.81;80.38
73981;BME280;62348;51.412;5.436;2023-03-14T00:03:47;98849.72;;;10.79;79.95
73981;BME280;62348;51.412;5.436;2023-03-14T00:06:13;98857.34;;;10.77;80.40
73981;BME280;62348;51.412;5.436;2023-03-14T00:08:40;98853.34;;;10.74;80.34
73981;BME280;62348;51.412;5.436;2023-03-14T00:11:12;98844.47;;;10.74;80.22
73981;BME280;62348;51.412;5.436;2023-03-14T00:13:38;98845.56;;;10.73;80.24
73981;BME280;62348;51.412;5.436;2023-03-14T00:16:09;98855.56;;;10.72;79.92
73981;BME280;62348;51.412;5.436;2023-03-14T00:18:35;98858.09;;;10.69;79.80
73981;BME280;62348;51.412;5.436;2023-03-14T00:21:01;98862.72;;;10.68;79.24
73981;BME280;62348;51.412;5.436;2023-03-14T00:23:28;98860.63;;;10.65;78.26
73981;BME280;62348;51.412;5.436;2023-03-14T00:26:01;98876.84;;;10.65;78.14
73981;BME280;62348;51.412;5.436;2023-03-14T00:28:27;98872.84;;;10.63;77.58
73981;BME280;62348;51.412;5.436;2023-03-14T00:30:53;98872.38;;;10.61;77.26
73981;BME280;62348;51.412;5.436;2023-03-14T00:33:19;98879.16;;;10.58;77.10
73981;BME280;62348;51.412;5.436;2023-03-14T00:35:52;98874.88;;;10.57;76.38
73981;BME280;62348;51.412;5.436;2023-03-14T00:38:18;98874.69;;;10.53;75.41
73981;BME280;62348;51.412;5.436;2023-03-14T00:40:43;98871.50;;;10.51;75.50
73981;BME280;62348;51.412;5.436;2023-03-14T00:43:09;98884.84;;;10.48;75.18
73981;BME280;62348;51.412;5.436;2023-03-14T00:45:34;98885.44;;;10.45;75.13
73981;BME280;62348;51.412;5.436;2023-03-14T00:48:00;98887.66;;;10.43;75.97
73981;BME280;62348;51.412;5.436;2023-03-14T00:50:25;98888.78;;;10.42;76.49
73981;BME280;62348;51.412;5.436;2023-03-14T00:52:50;98884.75;;;10.39;76.45
73981;BME280;62348;51.412;5.436;2023-03-14T00:55:16;98884.28;;;10.37;75.87
73981;BME280;62348;51.412;5.436;2023-03-14T00:57:41;98873.28;;;10.33;76.12
73981;BME280;62348;51.412;5.436;2023-03-14T01:00:07;98888.22;;;10.31;76.09
73981;BME280;62348;51.412;5.436;2023-03-14T01:02:36;98890.38;;;10.29;76.05
73981;BME280;62348;51.412;5.436;2023-03-14T01:05:01;98886.06;;;10.28;76.70
73981;BME280;62348;51.412;5.436;2023-03-14T01:07:27;98887.50;;;10.25;76.67
73981;BME280;62348;51.412;5.436;2023-03-14T01:09:52;98890.50;;;10.24;76.31
73981;BME280;62348;51.412;5.436;2023-03-14T01:12:18;98889.72;;;10.23;76.03
73981;BME280;62348;51.412;5.436;2023-03-14T01:14:43;98900.81;;;10.22;76.37
73981;BME280;62348;51.412;5.436;2023-03-14T01:17:08;98894.91;;;10.20;76.34
73981;BME280;62348;51.412;5.436;2023-03-14T01:19:34;98883.31;;;10.19;75.96
73981;BME280;62348;51.412;5.436;2023-03-14T01:21:59;98873.63;;;10.18;76.30
73981;BME280;62348;51.412;5.436;2023-03-14T01:24:25;98874.25;;;10.15;76.40
73981;BME280;62348;51.412;5.436;2023-03-14T01:26:50;98873.44;;;10.14;76.66
73981;BME280;62348;51.412;5.436;2023-03-14T01:29:15;98862.91;;;10.13;76.42
73981;BME280;62348;51.412;5.436;2023-03-14T01:31:41;98859.72;;;10.11;76.58
73981;BME280;62348;51.412;5.436;2023-03-14T01:34:06;98846.22;;;10.11;76.70
73981;BME280;62348;51.412;5.436;2023-03-14T01:36:32;98846.22;;;10.11;76.67
73981;BME280;62348;51.412;5.436;2023-03-14T01:38:57;98836.84;;;10.08;76.70
73981;BME280;62348;51.412;5.436;2023-03-14T01:41:25;98849.25;;;10.09;76.55
73981;BME280;62348;51.412;5.436;2023-03-14T01:43:51;98837.63;;;10.09;76.61
73981;BME280;62348;51.412;5.436;2023-03-14T01:46:23;98843.88;;;10.09;77.01
73981;BME280;62348;51.412;5.436;2023-03-14T01:48:52;98827.97;;;10.08;77.21
73981;BME280;62348;51.412;5.436;2023-03-14T01:51:25;98820.94;;;10.07;77.27
73981;BME280;62348;51.412;5.436;2023-03-14T01:53:54;98821.78;;;10.07;76.92
73981;BME280;62348;51.412;5.436;2023-03-14T01:56:23;98822.38;;;10.04;77.33
73981;BME280;62348;51.412;5.436;2023-03-14T01:58:51;98825.06;;;10.04;77.86
73981;BME280;62348;51.412;5.436;2023-03-14T02:01:19;98830.78;;;10.03;77.87
73981;BME280;62348;51.412;5.436;2023-03-14T02:03:55;98829.69;;;10.04;77.86
73981;BME280;62348;51.412;5.436;2023-03-14T02:06:27;98817.75;;;10.05;78.22
73981;BME280;62348;51.412;5.436;2023-03-14T02:08:55;98823.16;;;10.05;78.43
73981;BME280;62348;51.412;5.436;2023-03-14T02:11:21;98819.66;;;10.04;78.88
73981;BME280;62348;51.412;5.436;2023-03-14T02:13:47;98818.88;;;10.04;78.84
73981;BME280;62348;51.412;5.436;2023-03-14T02:16:13;98817.28;;;10.03;78.82
73981;BME280;62348;51.412;5.436;2023-03-14T02:18:39;98812.66;;;10.03;79.24
73981;BME280;62348;51.412;5.436;2023-03-14T02:21:14;98818.06;;;10.03;79.15
73981;BME280;62348;51.412;5.436;2023-03-14T02:27:10;98807.59;;;10.02;80.25
73981;BME280;62348;51.412;5.436;2023-03-14T02:29:41;98807.41;;;9.98;80.47
73981;BME280;62348;51.412;5.436;2023-03-14T02:32:10;98802.31;;;9.96;80.95
73981;BME280;62348;51.412;5.436;2023-03-14T02:34:36;98798.28;;;9.94;80.84
73981;BME280;62348;51.412;5.436;2023-03-14T02:37:02;98810.22;;;9.93;81.26
73981;BME280;62348;51.412;5.436;2023-03-14T02:39:38;98805.41;;;9.90;81.65
73981;BME280;62348;51.412;5.436;2023-03-14T02:42:04;98799.72;;;9.91;81.96
73981;BME280;62348;51.412;5.436;2023-03-14T02:44:29;98789.22;;;9.90;81.74
73981;BME280;62348;51.412;5.436;2023-03-14T02:46:55;98788.72;;;9.88;81.98
73981;BME280;62348;51.412;5.436;2023-03-14T02:49:21;98783.63;;;9.86;82.06
73981;BME280;62348;51.412;5.436;2023-03-14T02:51:47;98781.25;;;9.85;82.28
73981;BME280;62348;51.412;5.436;2023-03-14T02:54:14;98787.75;;;9.84;82.17
73981;BME280;62348;51.412;5.436;2023-03-14T02:56:40;98789.66;;;9.83;82.09
73981;BME280;62348;51.412;5.436;2023-03-14T02:59:06;98786.16;;;9.83;82.29
73981;BME280;62348;51.412;5.436;2023-03-14T03:01:33;98789.16;;;9.81;82.14
73981;BME280;62348;51.412;5.436;2023-03-14T03:03:58;98786.16;;;9.83;82.44
73981;BME280;62348;51.412;5.436;2023-03-14T03:06:24;98795.66;;;9.80;82.45
73981;BME280;62348;51.412;5.436;2023-03-14T03:08:49;98802.97;;;9.80;82.37
73981;BME280;62348;51.412;5.436;2023-03-14T03:11:15;98806.44;;;9.80;82.65
73981;BME280;62348;51.412;5.436;2023-03-14T03:13:40;98807.56;;;9.79;82.46
73981;BME280;62348;51.412;5.436;2023-03-14T03:16:06;98811.34;;;9.78;82.49
73981;BME280;62348;51.412;5.436;2023-03-14T03:18:31;98794.38;;;9.77;82.47
73981;BME280;62348;51.412;5.436;2023-03-14T03:21:00;98796.28;;;9.77;82.34
73981;BME280;62348;51.412;5.436;2023-03-14T03:23:26;98790.06;;;9.76;82.20
73981;BME280;62348;51.412;5.436;2023-03-14T03:25:52;98795.75;;;9.75;82.05
73981;BME280;62348;51.412;5.436;2023-03-14T03:28:18;98788.78;;;9.74;82.16
73981;BME280;62348;51.412;5.436;2023-03-14T03:30:43;98792.09;;;9.71;82.03
73981;BME280;62348;51.412;5.436;2023-03-14T03:33:09;98796.41;;;9.72;81.92
73981;BME280;62348;51.412;5.436;2023-03-14T03:35:45;98798.31;;;9.71;81.82
73981;BME280;62348;51.412;5.436;2023-03-14T03:38:11;98799.09;;;9.72;81.89
73981;BME280;62348;51.412;5.436;2023-03-14T03:40:37;98788.59;;;9.70;81.84
73981;BME280;62348;51.412;5.436;2023-03-14T03:43:02;98786.69;;;9.71;82.11
73981;BME280;62348;51.412;5.436;2023-03-14T03:45:29;98790.50;;;9.70;81.88
73981;BME280;62348;51.412;5.436;2023-03-14T03:47:54;98783.81;;;9.67;81.71
73981;BME280;62348;51.412;5.436;2023-03-14T03:50:20;98779.81;;;9.65;81.65
73981;BME280;62348;51.412;5.436;2023-03-14T03:52:45;98785.50;;;9.63;81.82
73981;BME280;62348;51.412;5.436;2023-03-14T03:55:10;98779.44;;;9.57;81.88
73981;BME280;62348;51.412;5.436;2023-03-14T03:57:36;98771.97;;;9.54;81.64
73981;BME280;62348;51.412;5.436;2023-03-14T04:00:03;98769.56;;;9.53;81.69
73981;BME280;62348;51.412;5.436;2023-03-14T04:02:30;98784.44;;;9.50;82.49
73981;BME280;62348;51.412;5.436;2023-03-14T04:04:55;98774.78;;;9.49;82.54
73981;BME280;62348;51.412;5.436;2023-03-14T04:07:20;98775.69;;;9.45;82.60
73981;BME280;62348;51.412;5.436;2023-03-14T04:09:46;98778.69;;;9.43;83.39
73981;BME280;62348;51.412;5.436;2023-03-14T04:12:11;98773.28;;;9.43;83.60
73981;BME280;62348;51.412;5.436;2023-03-14T04:14:37;98783.59;;;9.41;84.01
73981;BME280;62348;51.412;5.436;2023-03-14T04:17:03;98773.09;;;9.40;84.70
73981;BME280;62348;51.412;5.436;2023-03-14T04:19:28;98771.78;;;9.37;85.16
73981;BME280;62348;51.412;5.436;2023-03-14T04:21:53;98778.31;;;9.36;85.88
73981;BME280;62348;51.412;5.436;2023-03-14T04:24:19;98779.72;;;9.33;86.34
73981;BME280;62348;51.412;5.436;2023-03-14T04:26:44;98771.09;;;9.31;86.71
73981;BME280;62348;51.412;5.436;2023-03-14T04:29:09;98770.94;;;9.28;87.18
73981;BME280;62348;51.412;5.436;2023-03-14T04:31:35;98766.91;;;9.25;87.75
73981;BME280;62348;51.412;5.436;2023-03-14T04:34:00;98756.75;;;9.22;88.24
73981;BME280;62348;51.412;5.436;2023-03-14T04:36:26;98766.22;;;9.19;88.41
73981;BME280;62348;51.412;5.436;2023-03-14T04:38:51;98760.63;;;9.16;88.69
73981;BME280;62348;51.412;5.436;2023-03-14T04:41:16;98755.56;;;9.14;89.27
73981;BME280;62348;51.412;5.436;2023-03-14T04:43:42;98755.38;;;9.11;90.03
73981;BME280;62348;51.412;5.436;2023-03-14T04:46:07;98749.50;;;9.09;90.62
73981;BME280;62348;51.412;5.436;2023-03-14T04:48:33;98753.78;;;9.10;91.06
73981;BME280;62348;51.412;5.436;2023-03-14T04:50:58;98755.19;;;9.07;91.96
73981;BME280;62348;51.412;5.436;2023-03-14T04:53:26;98753.06;;;9.04;92.63
73981;BME280;62348;51.412;5.436;2023-03-14T04:55:54;98756.38;;;9.01;93.42
73981;BME280;62348;51.412;5.436;2023-03-14T04:58:20;98754.00;;;8.99;93.56
73981;BME280;62348;51.412;5.436;2023-03-14T05:00:46;98757.78;;;8.98;93.92
73981;BME280;62348;51.412;5.436;2023-03-14T05:03:14;98757.56;;;8.95;94.17
73981;BME280;62348;51.412;5.436;2023-03-14T05:05:39;98746.78;;;8.95;94.33
73981;BME280;62348;51.412;5.436;2023-03-14T05:08:05;98750.31;;;8.95;94.61
73981;BME280;62348;51.412;5.436;2023-03-14T05:10:30;98756.00;;;8.94;94.80
73981;BME280;62348;51.412;5.436;2023-03-14T05:12:56;98742.81;;;8.92;94.78
73981;BME280;62348;51.412;5.436;2023-03-14T05:15:21;98752.81;;;8.92;94.96
73981;BME280;62348;51.412;5.436;2023-03-14T05:17:46;98749.78;;;8.93;95.22
73981;BME280;62348;51.412;5.436;2023-03-14T05:20:14;98742.03;;;8.92;95.30
73981;BME280;62348;51.412;5.436;2023-03-14T05:22:39;98749.19;;;8.96;95.23
73981;BME280;62348;51.412;5.436;2023-03-14T05:25:05;98747.63;;;8.95;95.59
73981;BME280;62348;51.412;5.436;2023-03-14T05:27:31;98752.69;;;8.97;95.53
73981;BME280;62348;51.412;5.436;2023-03-14T05:29:57;98739.69;;;8.99;95.61
73981;BME280;62348;51.412;5.436;2023-03-14T05:32:22;98733.50;;;8.98;95.69
73981;BME280;62348;51.412;5.436;2023-03-14T05:34:47;98745.09;;;8.99;95.85
73981;BME280;62348;51.412;5.436;2023-03-14T05:37:13;98735.91;;;9.00;95.69
73981;BME280;62348;51.412;5.436;2023-03-14T05:39:38;98735.91;;;9.00;95.98
73981;BME280;62348;51.412;5.436;2023-03-14T05:42:03;98727.03;;;8.99;96.38
73981;BME280;62348;51.412;5.436;2023-03-14T05:44:29;98732.13;;;9.01;96.51
73981;BME280;62348;51.412;5.436;2023-03-14T05:46:54;98728.63;;;9.01;96.42
73981;BME280;62348;51.412;5.436;2023-03-14T05:49:20;98729.44;;;9.01;96.63
73981;BME280;62348;51.412;5.436;2023-03-14T05:51:45;98738.59;;;9.00;97.08
73981;BME280;62348;51.412;5.436;2023-03-14T05:54:11;98728.13;;;8.98;97.20
73981;BME280;62348;51.412;5.436;2023-03-14T05:56:36;98728.91;;;8.99;97.29
73981;BME280;62348;51.412;5.436;2023-03-14T05:59:01;98720.03;;;8.98;97.61
73981;BME280;62348;51.412;5.436;2023-03-14T06:01:31;98719.25;;;8.98;97.86
73981;BME280;62348;51.412;5.436;2023-03-14T06:03:56;98727.34;;;8.98;98.04
73981;BME280;62348;51.412;5.436;2023-03-14T06:06:21;98723.84;;;8.97;98.32
73981;BME280;62348;51.412;5.436;2023-03-14T06:08:47;98711.75;;;8.95;98.61
73981;BME280;62348;51.412;5.436;2023-03-14T06:11:12;98718.75;;;8.96;98.93
73981;BME280;62348;51.412;5.436;2023-03-14T06:13:38;98719.25;;;8.98;98.81
73981;BME280;62348;51.412;5.436;2023-03-14T06:16:03;98714.16;;;8.96;99.04
73981;BME280;62348;51.412;5.436;2023-03-14T06:18:29;98717.63;;;8.97;99.06
73981;BME280;62348;51.412;5.436;2023-03-14T06:20:55;98724.16;;;8.96;98.97
73981;BME280;62348;51.412;5.436;2023-03-14T06:23:21;98717.63;;;8.97;98.84
73981;BME280;62348;51.412;5.436;2023-03-14T06:25:47;98726.53;;;8.97;98.75
73981;BME280;62348;51.412;5.436;2023-03-14T06:28:12;98723.03;;;8.97;98.69
73981;BME280;62348;51.412;5.436;2023-03-14T06:30:38;98732.72;;;8.98;98.42
73981;BME280;62348;51.412;5.436;2023-03-14T06:33:03;98716.56;;;8.98;98.49
73981;BME280;62348;51.412;5.436;2023-03-14T06:35:29;98724.34;;;8.99;98.25
73981;BME280;62348;51.412;5.436;2023-03-14T06:37:54;98735.13;;;8.99;98.45
73981;BME280;62348;51.412;5.436;2023-03-14T06:40:20;98730.22;;;9.02;98.33
73981;BME280;62348;51.412;5.436;2023-03-14T06:42:45;98725.31;;;9.04;98.23
73981;BME280;62348;51.412;5.436;2023-03-14T06:45:11;98737.88;;;9.08;98.33
73981;BME280;62348;51.412;5.436;2023-03-14T06:47:36;98734.59;;;9.11;98.27
73981;BME280;62348;51.412;5.436;2023-03-14T06:50:04;98727.00;;;9.13;98.43
73981;BME280;62348;51.412;5.436;2023-03-14T06:52:30;98737.06;;;9.22;98.50
73981;BME280;62348;51.412;5.436;2023-03-14T06:54:55;98739.38;;;9.28;98.28
73981;BME280;62348;51.412;5.436;2023-03-14T06:57:20;98747.34;;;9.33;98.32
73981;BME280;62348;51.412;5.436;2023-03-14T06:59:46;98748.13;;;9.34;98.37
73981;BME280;62348;51.412;5.436;2023-03-14T07:02:15;98755.44;;;9.33;98.63
73981;BME280;62348;51.412;5.436;2023-03-14T07:04:40;98750.84;;;9.34;98.70
73981;BME280;62348;51.412;5.436;2023-03-14T07:07:06;98758.94;;;9.34;98.97
73981;BME280;62348;51.412;5.436;2023-03-14T07:09:32;98762.41;;;9.34;99.29
73981;BME280;62348;51.412;5.436;2023-03-14T07:11:58;98768.31;;;9.36;99.20
73981;BME280;62348;51.412;5.436;2023-03-14T07:14:23;98765.59;;;9.36;99.16
73981;BME280;62348;51.412;5.436;2023-03-14T07:16:48;98763.69;;;9.37;99.27
73981;BME280;62348;51.412;5.436;2023-03-14T07:19:17;98770.69;;;9.38;99.28
73981;BME280;62348;51.412;5.436;2023-03-14T07:21:43;98774.19;;;9.38;99.48
73981;BME280;62348;51.412;5.436;2023-03-14T07:24:08;98772.59;;;9.37;99.50
73981;BME280;62348;51.412;5.436;2023-03-14T07:26:34;98786.09;;;9.37;99.52
73981;BME280;62348;51.412;5.436;2023-03-14T07:28:59;98790.66;;;9.37;99.66
73981;BME280;62348;51.412;5.436;2023-03-14T07:31:25;98792.88;;;9.35;100.00
73981;BME280;62348;51.412;5.436;2023-03-14T07:33:50;98805.88;;;9.33;100.00
73981;BME280;62348;51.412;5.436;2023-03-14T07:36:16;98837.72;;;9.31;100.00
73981;BME280;62348;51.412;5.436;2023-03-14T07:38:41;98856.69;;;9.26;99.59
73981;BME280;62348;51.412;5.436;2023-03-14T07:41:07;98879.47;;;9.19;98.41
73981;BME280;62348;51.412;5.436;2023-03-14T07:43:33;98892.16;;;9.05;95.27
73981;BME280;62348;51.412;5.436;2023-03-14T07:45:59;98913.47;;;8.88;93.54
73981;BME280;62348;51.412;5.436;2023-03-14T07:48:24;98925.63;;;8.71;94.18
73981;BME280;62348;51.412;5.436;2023-03-14T07:50:53;98937.66;;;8.60;93.39
73981;BME280;62348;51.412;5.436;2023-03-14T07:53:19;98950.50;;;8.49;93.23
73981;BME280;62348;51.412;5.436;2023-03-14T07:55:45;98944.22;;;8.35;93.83
73981;BME280;62348;51.412;5.436;2023-03-14T07:58:11;98964.53;;;8.27;93.61
73981;BME280;62348;51.412;5.436;2023-03-14T08:00:36;98970.28;;;8.20;93.63
73981;BME280;62348;51.412;5.436;2023-03-14T08:03:01;98980.59;;;8.13;94.46
73981;BME280;62348;51.412;5.436;2023-03-14T08:05:27;98992.53;;;8.07;94.95
73981;BME280;62348;51.412;5.436;2023-03-14T08:07:53;98992.59;;;8.02;95.85
73981;BME280;62348;51.412;5.436;2023-03-14T08:10:18;99001.81;;;7.96;95.58
73981;BME280;62348;51.412;5.436;2023-03-14T08:12:53;99016.38;;;7.95;96.20
73981;BME280;62348;51.412;5.436;2023-03-14T08:15:19;99023.13;;;7.92;96.46
73981;BME280;62348;51.412;5.436;2023-03-14T08:17:45;99027.19;;;7.90;95.97
73981;BME280;62348;51.412;5.436;2023-03-14T08:20:11;99040.41;;;7.86;96.67
73981;BME280;62348;51.412;5.436;2023-03-14T08:22:37;99046.88;;;7.85;96.39
73981;BME280;62348;51.412;5.436;2023-03-14T08:25:03;99063.88;;;7.80;95.43
73981;BME280;62348;51.412;5.436;2023-03-14T08:27:29;99059.56;;;7.79;95.27
73981;BME280;62348;51.412;5.436;2023-03-14T08:29:54;99074.13;;;7.78;95.29
73981;BME280;62348;51.412;5.436;2023-03-14T08:32:19;99083.59;;;7.76;95.62
73981;BME280;62348;51.412;5.436;2023-03-14T08:34:46;99090.56;;;7.77;95.69
73981;BME280;62348;51.412;5.436;2023-03-14T08:37:11;99097.03;;;7.76;95.73
73981;BME280;62348;51.412;5.436;2023-03-14T08:39:37;99119.09;;;7.78;95.23
73981;BME280;62348;51.412;5.436;2023-03-14T08:42:03;99124.00;;;7.71;94.62
73981;BME280;62348;51.412;5.436;2023-03-14T08:44:28;99132.09;;;7.66;94.68
73981;BME280;62348;51.412;5.436;2023-03-14T08:46:54;99145.81;;;7.64;95.06
73981;BME280;62348;51.412;5.436;2023-03-14T08:49:19;99149.88;;;7.61;95.49
73981;BME280;62348;51.412;5.436;2023-03-14T08:51:44;99154.22;;;7.57;95.67
73981;BME280;62348;51.412;5.436;2023-03-14T08:54:10;99166.06;;;7.56;95.63
73981;BME280;62348;51.412;5.436;2023-03-14T08:56:36;99170.66;;;7.56;95.92
73981;BME280;62348;51.412;5.436;2023-03-14T08:59:03;99174.41;;;7.55;96.14
73981;BME280;62348;51.412;5.436;2023-03-14T09:01:29;99185.47;;;7.53;95.77
73981;BME280;62348;51.412;5.436;2023-03-14T09:03:54;99197.03;;;7.54;95.64
73981;BME280;62348;51.412;5.436;2023-03-14T09:06:19;99204.56;;;7.52;94.94
73981;BME280;62348;51.412;5.436;2023-03-14T09:08:45;99209.69;;;7.53;95.09
73981;BME280;62348;51.412;5.436;2023-03-14T09:11:11;99222.63;;;7.46;95.76
73981;BME280;62348;51.412;5.436;2023-03-14T09:13:37;99218.91;;;7.42;95.51
73981;BME280;62348;51.412;5.436;2023-03-14T09:16:03;99236.91;;;7.41;96.51
73981;BME280;62348;51.412;5.436;2023-03-14T09:18:29;99245.25;;;7.40;96.51
73981;BME280;62348;51.412;5.436;2023-03-14T09:20:55;99251.44;;;7.40;96.37
73981;BME280;62348;51.412;5.436;2023-03-14T09:23:20;99266.78;;;7.40;97.01
73981;BME280;62348;51.412;5.436;2023-03-14T09:25:49;99262.44;;;7.44;97.23
73981;BME280;62348;51.412;5.436;2023-03-14T09:28:14;99280.41;;;7.49;96.66
73981;BME280;62348;51.412;5.436;2023-03-14T09:30:40;99274.50;;;7.52;96.77
73981;BME280;62348;51.412;5.436;2023-03-14T09:33:05;99274.44;;;7.57;95.41
73981;BME280;62348;51.412;5.436;2023-03-14T09:35:33;99295.69;;;7.58;96.64
73981;BME280;62348;51.412;5.436;2023-03-14T09:37:58;99290.81;;;7.66;96.31
73981;BME280;62348;51.412;5.436;2023-03-14T09:40:24;99316.34;;;7.68;96.16
73981;BME280;62348;51.412;5.436;2023-03-14T09:42:55;99317.72;;;7.66;95.72
73981;BME280;62348;51.412;5.436;2023-03-14T09:45:35;99323.13;;;7.60;95.37
73981;BME280;62348;51.412;5.436;2023-03-14T09:48:03;99334.19;;;7.59;95.61
73981;BME280;62348;51.412;5.436;2023-03-14T09:50:41;99364.31;;;7.56;95.16
73981;BME280;62348;51.412;5.436;2023-03-14T09:53:16;99389.91;;;7.48;94.54
73981;BME280;62348;51.412;5.436;2023-03-14T09:55:45;99401.78;;;7.37;93.63
73981;BME280;62348;51.412;5.436;2023-03-14T09:58:13;99413.63;;;7.20;90.59
73981;BME280;62348;51.412;5.436;2023-03-14T10:00:40;99424.44;;;7.05;89.95
73981;BME280;62348;51.412;5.436;2023-03-14T10:05:38;99462.91;;;6.85;91.13
73981;BME280;62348;51.412;5.436;2023-03-14T10:08:04;99482.25;;;6.72;89.52
73981;BME280;62348;51.412;5.436;2023-03-14T10:10:30;99497.53;;;6.56;91.31
73981;BME280;62348;51.412;5.436;2023-03-14T10:12:58;99514.44;;;6.51;90.69
73981;BME280;62348;51.412;5.436;2023-03-14T10:15:31;99519.25;;;6.44;90.30
73981;BME280;62348;51.412;5.436;2023-03-14T10:17:59;99520.88;;;6.40;89.51
73981;BME280;62348;51.412;5.436;2023-03-14T10:20:34;99539.91;;;6.38;89.48
73981;BME280;62348;51.412;5.436;2023-03-14T10:23:24;99546.66;;;6.46;90.80
73981;BME280;62348;51.412;5.436;2023-03-14T10:26:07;99563.88;;;6.60;90.30
73981;BME280;62348;51.412;5.436;2023-03-14T10:28:46;99578.41;;;6.70;90.45
73981;BME280;62348;51.412;5.436;2023-03-14T10:31:13;99580.31;;;6.79;91.40
73981;BME280;62348;51.412;5.436;2023-03-14T10:33:38;99591.88;;;6.85;90.59
73981;BME280;62348;51.412;5.436;2023-03-14T10:36:22;99603.94;;;6.88;89.20
73981;BME280;62348;51.412;5.436;2023-03-14T10:38:49;99603.66;;;6.84;88.08
73981;BME280;62348;51.412;5.436;2023-03-14T10:41:34;99618.19;;;6.88;89.31
73981;BME280;62348;51.412;5.436;2023-03-14T10:44:01;99631.88;;;6.87;88.48
73981;BME280;62348;51.412;5.436;2023-03-14T10:46:30;99638.34;;;6.86;88.66
73981;BME280;62348;51.412;5.436;2023-03-14T10:48:56;99638.09;;;6.87;87.64
73981;BME280;62348;51.412;5.436;2023-03-14T10:51:29;99665.78;;;6.93;87.39
73981;BME280;62348;51.412;5.436;2023-03-14T10:54:04;99674.09;;;7.01;87.29
73981;BME280;62348;51.412;5.436;2023-03-14T10:56:37;99677.88;;;7.00;85.09
73981;BME280;62348;51.412;5.436;2023-03-14T10:59:07;99681.63;;;6.99;82.39
73981;BME280;62348;51.412;5.436;2023-03-14T11:04:37;99708.75;;;6.98;83.97
73981;BME280;62348;51.412;5.436;2023-03-14T11:10:03;99733.44;;;6.84;86.41
73981;BME280;62348;51.412;5.436;2023-03-14T11:13:00;99750.63;;;6.78;86.92
73981;BME280;62348;51.412;5.436;2023-03-14T11:23:19;99769.84;;;6.55;88.78
73981;BME280;62348;51.412;5.436;2023-03-14T11:28:23;99791.34;;;6.55;89.08
73981;BME280;62348;51.412;5.436;2023-03-14T11:30:58;99797.81;;;6.59;88.01
73981;BME280;62348;51.412;5.436;2023-03-14T11:33:47;99805.34;;;6.62;88.23
73981;BME280;62348;51.412;5.436;2023-03-14T11:36:23;99816.91;;;6.62;88.08
73981;BME280;62348;51.412;5.436;2023-03-14T11:38:52;99815.03;;;6.63;88.48
73981;BME280;62348;51.412;5.436;2023-03-14T11:41:40;99820.94;;;6.65;88.67
73981;BME280;62348;51.412;5.436;2023-03-14T11:44:25;99822.56;;;6.66;87.50
73981;BME280;62348;51.412;5.436;2023-03-14T11:47:11;99850.22;;;6.67;88.20
73981;BME280;62348;51.412;5.436;2023-03-14T11:49:51;99866.84;;;6.63;89.24
73981;BME280;62348;51.412;5.436;2023-03-14T11:57:24;99902.41;;;6.38;86.31
73981;BME280;62348;51.412;5.436;2023-03-14T12:02:48;99906.69;;;5.85;86.93
73981;BME280;62348;51.412;5.436;2023-03-14T12:10:58;99922.47;;;5.81;90.46
73981;BME280;62348;51.412;5.436;2023-03-14T12:13:29;99932.50;;;5.91;89.75
73981;BME280;62348;51.412;5.436;2023-03-14T12:16:00;99943.13;;;6.03;88.77
73981;BME280;62348;51.412;5.436;2023-03-14T12:21:00;99955.09;;;6.17;90.90
73981;BME280;62348;51.412;5.436;2023-03-14T12:23:27;99955.91;;;6.18;89.76
73981;BME280;62348;51.412;5.436;2023-03-14T12:26:08;99958.41;;;6.30;89.83
73981;BME280;62348;51.412;5.436;2023-03-14T12:28:39;99961.72;;;6.37;88.80
73981;BME280;62348;51.412;5.436;2023-03-14T12:45:27;99971.16;;;6.72;81.99
73981;BME280;62348;51.412;5.436;2023-03-14T12:48:03;99985.72;;;6.76;81.46
73981;BME280;62348;51.412;5.436;2023-03-14T12:50:40;99991.88;;;6.76;80.50
73981;BME280;62348;51.412;5.436;2023-03-14T13:01:46;100005.31;;;6.76;77.87
73981;BME280;62348;51.412;5.436;2023-03-14T13:04:13;100008.84;;;6.82;78.54
73981;BME280;62348;51.412;5.436;2023-03-14T13:06:54;100009.72;;;6.88;80.97
73981;BME280;62348;51.412;5.436;2023-03-14T13:12:16;100029.06;;;6.90;78.28
73981;BME280;62348;51.412;5.436;2023-03-14T13:14:46;100030.97;;;6.94;77.77
73981;BME280;62348;51.412;5.436;2023-03-14T13:17:13;100034.25;;;6.96;74.32
73981;BME280;62348;51.412;5.436;2023-03-14T13:19:39;100030.22;;;6.99;76.03
73981;BME280;62348;51.412;5.436;2023-03-14T13:22:24;100045.03;;;7.01;74.90
73981;BME280;62348;51.412;5.436;2023-03-14T13:24:59;100048.00;;;7.05;72.86
73981;BME280;62348;51.412;5.436;2023-03-14T13:27:24;100056.63;;;7.07;67.17
73981;BME280;62348;51.412;5.436;2023-03-14T13:29:51;100060.69;;;7.10;68.06
73981;BME280;62348;51.412;5.436;2023-03-14T13:32:22;100069.06;;;7.13;65.10
73981;BME280;62348;51.412;5.436;2023-03-14T13:34:47;100058.31;;;7.18;66.38
73981;BME280;62348;51.412;5.436;2023-03-14T13:37:22;100068.31;;;7.23;64.98
73981;BME280;62348;51.412;5.436;2023-03-14T13:39:52;100074.22;;;7.20;62.62
73981;BME280;62348;51.412;5.436;2023-03-14T13:42:18;100089.84;;;7.23;64.78
73981;BME280;62348;51.412;5.436;2023-03-14T13:44:44;100090.13;;;7.27;60.83
73981;BME280;62348;51.412;5.436;2023-03-14T13:47:14;100091.19;;;7.26;56.55
73981;BME280;62348;51.412;5.436;2023-03-14T13:49:40;100105.69;;;7.24;55.40
73981;BME280;62348;51.412;5.436;2023-03-14T13:52:29;100115.13;;;7.27;58.96
73981;BME280;62348;51.412;5.436;2023-03-14T13:54:56;100115.69;;;7.29;54.83
73981;BME280;62348;51.412;5.436;2023-03-14T13:57:22;100128.03;;;7.25;55.35
73981;BME280;62348;51.412;5.436;2023-03-14T13:59:59;100138.50;;;7.21;54.45
73981;BME280;62348;51.412;5.436;2023-03-14T14:02:26;100137.94;;;7.19;52.90
73981;BME280;62348;51.412;5.436;2023-03-14T14:04:52;100161.06;;;7.20;53.19
73981;BME280;62348;51.412;5.436;2023-03-14T14:07:18;100169.66;;;7.17;53.93
73981;BME280;62348;51.412;5.436;2023-03-14T14:09:46;100170.94;;;7.15;55.48
73981;BME280;62348;51.412;5.436;2023-03-14T14:12:32;100179.56;;;7.17;54.69
73981;BME280;62348;51.412;5.436;2023-03-14T14:19:59;100210.78;;;7.18;55.05